Bookmark and Share
Track history (hours):
 

Zipper

More information available from US FCC via Universal Licensing System and Coast Guard Vessel Documentation Center.

Last reported at 2012-Oct-22 18:32 UTC. Time now 2014-Apr-19 00:14 UTC.
Position N 47°40' W 122°24'.
Warning: this ship's position is years out of date!

Length 17 m.

Type: Pleasure craft. MMSI: 338135583.

NotesDate/timePositionNaut miles runAvg speedWind from/ knotsBaromVisibWave heightAir tempDewpointWater temp
2012-Oct-22 18:32N 47°40' W 122°24'  
2012-Oct-20 00:32N 47°41' W 122°24'5 5.5
2012-Oct-19 23:33N 47°46' W 122°26'337.4
2012-Oct-19 23:28N 47°43' W 122°25'2 2.4
2012-Oct-19 22:31N 47°41' W 122°24'0 0.0
2012-Oct-19 22:13N 47°41' W 122°24'0 0.0
2012-Oct-19 21:31N 47°41' W 122°24'0 0.0
2012-Oct-19 21:07N 47°41' W 122°24'0 0.0
2012-Oct-19 20:31N 47°41' W 122°24'0 0.0
2012-Oct-19 19:37N 47°41' W 122°24'0 0.0
2012-Oct-19 19:31N 47°41' W 122°24'1 0.8
2012-Oct-19 18:52N 47°41' W 122°24'0 0.9
2012-Oct-19 18:28N 47°42' W 122°25'0 0.2
2012-Oct-19 16:42N 47°41' W 122°24'1 2.1
2012-Oct-19 16:25N 47°42' W 122°25'0 1.1
2012-Oct-19 16:02N 47°42' W 122°25'1 1.5
2012-Oct-19 15:30N 47°41' W 122°24'0 0.0
2012-Oct-19 15:12N 47°41' W 122°24'0 0.0
2012-Oct-19 14:30N 47°41' W 122°24'0 0.0
2012-Oct-19 14:16N 47°41' W 122°24'0 0.0
2012-Oct-19 00:08N 47°41' W 122°24'0 0.0
2012-Oct-18 23:32N 47°41' W 122°24'0 0.0
2012-Oct-18 23:32N 47°41' W 122°24'0 0.0
2012-Oct-18 22:27N 47°41' W 122°24'0 0.0
2012-Oct-18 20:33N 47°41' W 122°24'0 0.0
2012-Oct-18 20:32N 47°41' W 122°24'0 0.0
2012-Oct-18 17:33N 47°41' W 122°24'0 0.0
2012-Oct-18 16:27N 47°41' W 122°24'0 0.0
2012-Oct-18 16:27N 47°41' W 122°24'0 0.0
2012-Oct-18 15:33N 47°41' W 122°24'0 0.0
2012-Oct-18 15:17N 47°41' W 122°24'0 0.0
2012-Oct-17 18:33N 47°41' W 122°25'0 0.0
2012-Oct-16 21:33N 47°41' W 122°24'0 0.0
2012-Oct-16 21:33N 47°41' W 122°24'2119.7
2012-Oct-16 20:30N 48°00' W 122°13'14 7.2
2012-Oct-16 18:33N 47°48' W 122°25'7 8.7
2012-Oct-16 17:42N 47°41' W 122°24'0 0.0
2012-Oct-16 17:29N 47°41' W 122°24'  

Dump ship's entire track history

sailing weather and tide predictions

Zipper — WDF6605 — position and weather